Time;durP1;ratioP1;P1;durP2;ratioP2;P2;SDS_P1;SDS_P2;PMS_P1;PMS_P2;Temp;Humidity;BMP_temperature;BMP_pressure;BME280_temperature;BME280_humidity;BME280_pressure;Samples;Min_cycle;Max_cycle;Signal;HPM_P1;HPM_P2
2021/10/20 00:01:48;;;;;;;19.10;9.85;;;;;;;14.35;56.14;100738.47;5029385;28;20044;-68
2021/10/20 00:04:15;;;;;;;17.20;10.18;;;;;;;14.25;56.25;100735.50;5032538;28;20116;-68
2021/10/20 00:06:41;;;;;;;15.13;9.35;;;;;;;14.44;55.76;100740.59;5028507;28;20029;-68
2021/10/20 00:09:06;;;;;;;18.63;10.60;;;;;;;14.79;54.37;100742.06;5033226;28;20037;-68
2021/10/20 00:11:32;;;;;;;20.38;10.15;;;;;;;14.92;54.38;100743.00;5030024;28;20509;-68
2021/10/20 00:13:57;;;;;;;17.75;10.60;;;;;;;14.74;54.60;100719.50;5027949;28;20057;-69
2021/10/20 00:16:26;;;;;;;19.02;10.07;;;;;;;14.66;54.88;100718.28;5028998;28;20034;-68
2021/10/20 00:18:52;;;;;;;18.25;8.82;;;;;;;14.30;55.64;100716.81;5030935;28;20452;-68
2021/10/20 00:21:23;;;;;;;16.17;9.68;;;;;;;14.28;55.72;100721.34;5031462;28;20099;-68
2021/10/20 00:23:49;;;;;;;14.30;9.13;;;;;;;14.27;56.06;100724.91;5027202;28;20060;-68
2021/10/20 00:26:15;;;;;;;17.77;9.70;;;;;;;14.79;54.34;100715.75;5031703;28;20029;-68
2021/10/20 00:28:40;;;;;;;20.88;10.18;;;;;;;14.85;54.19;100704.84;5028599;28;20048;-68
2021/10/20 00:31:06;;;;;;;15.50;8.98;;;;;;;14.42;55.10;100708.28;5030577;28;20033;-68
2021/10/20 00:33:31;;;;;;;12.45;9.50;;;;;;;14.37;55.26;100691.91;5028562;28;20517;-67
2021/10/20 00:35:57;;;;;;;18.35;9.75;;;;;;;14.27;55.59;100709.97;5029980;28;20431;-68
2021/10/20 00:38:23;;;;;;;16.20;8.48;;;;;;;13.90;56.88;100706.00;5028224;28;20059;-68
2021/10/20 00:40:52;;;;;;;19.83;9.60;;;;;;;13.82;57.11;100708.22;5029267;28;20096;-67
2021/10/20 00:43:22;;;;;;;13.98;9.10;;;;;;;14.02;56.22;100704.44;5042296;28;20045;-68
2021/10/20 00:45:48;;;;;;;14.85;8.65;;;;;;;13.91;56.43;100707.69;5029497;28;20136;-67
2021/10/20 00:48:14;;;;;;;14.48;8.82;;;;;;;13.70;57.33;100694.00;5043672;28;20624;-67
2021/10/20 00:50:39;;;;;;;21.33;8.80;;;;;;;13.94;56.46;100697.00;5029026;28;20095;-68
2021/10/20 00:53:05;;;;;;;14.52;9.13;;;;;;;13.39;57.92;100685.16;5028748;28;20052;-68
2021/10/20 00:55:31;;;;;;;16.55;9.65;;;;;;;13.81;56.59;100686.34;5028785;28;20129;-68
2021/10/20 00:57:59;;;;;;;14.40;8.52;;;;;;;14.03;55.60;100693.00;5026696;28;20100;-68
2021/10/20 01:00:25;;;;;;;12.57;8.60;;;;;;;13.27;57.75;100681.44;5028476;28;20308;-68
2021/10/20 01:02:51;;;;;;;12.73;9.05;;;;;;;13.91;55.87;100681.41;5028699;28;20045;-67
2021/10/20 01:05:16;;;;;;;13.82;8.38;;;;;;;13.13;57.92;100677.84;5028648;28;20048;-67
2021/10/20 01:07:43;;;;;;;19.65;9.52;;;;;;;13.92;55.86;100662.94;5027382;28;20240;-67
2021/10/20 01:10:10;;;;;;;18.98;9.38;;;;;;;13.88;55.91;100648.28;5020498;28;20437;-68
2021/10/20 01:12:37;;;;;;;14.73;8.77;;;;;;;13.58;56.74;100647.41;5030171;28;20084;-67
2021/10/20 01:15:27;;;;;;;14.70;8.38;;;;;;;13.13;58.10;100641.13;5030006;28;20033;-67
2021/10/20 01:17:53;;;;;;;14.13;8.32;;;;;;;14.01;55.08;100644.94;5030100;28;20053;-67
2021/10/20 01:20:25;;;;;;;12.32;7.93;;;;;;;13.89;55.55;100636.00;5031781;28;20029;-67
2021/10/20 01:22:51;;;;;;;12.13;8.40;;;;;;;14.11;54.87;100630.34;5031387;28;20045;-67
2021/10/20 01:25:16;;;;;;;15.57;8.38;;;;;;;13.75;55.82;100613.16;5033612;28;20033;-66
2021/10/20 01:27:42;;;;;;;12.80;8.13;;;;;;;13.51;56.79;100610.94;5029419;28;20103;-67
2021/10/20 01:30:09;;;;;;;14.55;9.38;;;;;;;13.01;57.73;100598.03;5027134;28;20115;-68
2021/10/20 01:32:34;;;;;;;16.50;9.05;;;;;;;13.67;55.89;100608.34;5028478;28;20048;-67
2021/10/20 01:35:07;;;;;;;13.30;8.00;;;;;;;13.55;56.12;100611.63;5026091;28;20529;-68
2021/10/20 01:37:33;;;;;;;11.18;8.27;;;;;;;13.64;56.18;100602.41;5027610;28;20469;-67
2021/10/20 01:39:58;;;;;;;16.45;8.98;;;;;;;13.49;56.27;100597.06;5029519;28;20043;-67
2021/10/20 01:42:25;;;;;;;15.07;7.95;;;;;;;13.63;56.03;100595.44;5036222;28;20048;-67
2021/10/20 01:44:50;;;;;;;15.43;9.30;;;;;;;12.88;58.53;100595.22;5027642;28;20044;-67
2021/10/20 01:47:16;;;;;;;12.25;8.13;;;;;;;13.57;56.31;100593.19;5026680;28;20033;-68
2021/10/20 01:49:41;;;;;;;16.92;8.00;;;;;;;13.36;56.87;100582.09;5031076;28;20119;-67
2021/10/20 01:52:07;;;;;;;11.05;7.45;;;;;;;13.75;55.40;100592.13;5026779;28;20319;-68
2021/10/20 01:54:32;;;;;;;11.52;8.07;;;;;;;13.81;54.78;100597.03;5026824;28;20406;-67
2021/10/20 01:56:58;;;;;;;13.40;8.25;;;;;;;13.67;55.43;100573.34;5026331;28;20039;-67
2021/10/20 01:59:23;;;;;;;11.50;7.80;;;;;;;12.61;58.52;100553.78;5029992;28;20044;-68
2021/10/20 02:01:49;;;;;;;10.88;7.13;;;;;;;13.23;56.95;100574.09;5028106;28;20110;-67
2021/10/20 02:04:15;;;;;;;10.60;7.07;;;;;;;13.86;54.63;100558.22;5029698;28;20532;-68
2021/10/20 02:06:42;;;;;;;9.02;6.82;;;;;;;12.88;57.56;100556.72;5027235;28;20051;-67
2021/10/20 02:09:09;;;;;;;11.52;7.05;;;;;;;13.06;57.26;100562.72;5026196;28;20028;-68
2021/10/20 02:11:36;;;;;;;11.07;6.40;;;;;;;13.80;54.56;100544.59;5026493;28;20855;-69
2021/10/20 02:14:04;;;;;;;11.60;6.50;;;;;;;13.53;55.43;100543.44;5026522;28;20579;-68
2021/10/20 02:16:29;;;;;;;12.77;6.72;;;;;;;13.49;55.41;100548.97;5043723;28;20041;-67
2021/10/20 02:18:55;;;;;;;12.38;6.95;;;;;;;13.36;55.92;100548.84;5026215;28;20065;-68
2021/10/20 02:21:21;;;;;;;16.90;7.40;;;;;;;13.22;56.53;100546.13;5027851;28;20024;-68
2021/10/20 02:23:47;;;;;;;10.95;6.68;;;;;;;13.28;56.46;100540.53;5028240;28;20123;-67
2021/10/20 02:26:12;;;;;;;14.77;6.40;;;;;;;13.43;55.72;100538.81;5029507;28;20040;-68
2021/10/20 02:28:38;;;;;;;11.77;7.68;;;;;;;13.43;55.70;100529.16;5024945;28;20083;-67
2021/10/20 02:31:03;;;;;;;13.95;7.25;;;;;;;14.09;53.65;100516.56;5026120;28;20049;-68
2021/10/20 02:33:29;;;;;;;11.70;7.03;;;;;;;13.46;55.43;100517.63;5027939;28;20037;-67
2021/10/20 02:35:54;;;;;;;11.02;7.20;;;;;;;13.52;55.32;100512.03;5035579;28;20557;-69
2021/10/20 02:38:20;;;;;;;9.43;6.60;;;;;;;13.28;56.09;100524.78;5024973;28;20518;-68
2021/10/20 02:40:46;;;;;;;10.75;6.40;;;;;;;13.67;55.05;100505.06;5027123;28;20498;-68
2021/10/20 02:43:11;;;;;;;9.02;6.47;;;;;;;14.07;53.48;100503.50;5027077;28;20432;-67
2021/10/20 02:45:37;;;;;;;10.32;6.40;;;;;;;13.54;54.70;100499.66;5026182;28;20040;-68
2021/10/20 02:48:03;;;;;;;10.18;6.45;;;;;;;13.13;55.79;100494.16;5027471;28;20092;-68
2021/10/20 02:50:29;;;;;;;10.27;5.97;;;;;;;14.20;53.05;100494.91;5025889;28;20502;-68
2021/10/20 02:52:56;;;;;;;12.93;5.63;;;;;;;14.38;52.40;100485.03;5030585;28;20041;-68
2021/10/20 02:55:22;;;;;;;7.60;5.75;;;;;;;13.85;53.71;100474.22;5030621;28;20079;-68
2021/10/20 02:57:47;;;;;;;8.27;5.10;;;;;;;14.04;53.13;100476.59;5032268;28;20045;-67
2021/10/20 03:00:13;;;;;;;10.05;6.35;;;;;;;13.51;54.29;100482.28;5031751;28;20471;-67
2021/10/20 03:02:38;;;;;;;11.95;6.53;;;;;;;13.83;53.55;100469.09;5036642;28;20061;-68
2021/10/20 03:05:04;;;;;;;9.40;5.30;;;;;;;13.90;53.22;100470.41;5029356;28;20037;-67
2021/10/20 03:07:31;;;;;;;9.88;6.30;;;;;;;13.44;54.20;100465.22;5029461;28;20163;-67
2021/10/20 03:09:56;;;;;;;12.57;5.88;;;;;;;13.18;55.50;100466.72;5034949;28;20037;-68
2021/10/20 03:12:22;;;;;;;8.52;5.38;;;;;;;13.33;54.36;100465.84;5029896;28;20033;-67
2021/10/20 03:14:47;;;;;;;9.95;5.78;;;;;;;13.14;55.04;100462.59;5024037;28;20305;-67
2021/10/20 03:17:15;;;;;;;9.18;6.00;;;;;;;13.23;54.72;100453.38;5045985;28;20052;-67
2021/10/20 03:19:40;;;;;;;9.15;5.63;;;;;;;13.73;53.36;100455.63;5029158;28;20029;-68
2021/10/20 03:22:07;;;;;;;7.15;4.63;;;;;;;13.76;53.20;100448.50;5028566;28;20047;-67
2021/10/20 03:24:34;;;;;;;7.40;5.72;;;;;;;14.02;52.11;100446.94;5029891;28;20025;-67
2021/10/20 03:26:59;;;;;;;8.23;4.82;;;;;;;13.58;53.55;100447.84;5029570;28;20033;-67
2021/10/20 03:29:25;;;;;;;8.20;5.10;;;;;;;12.94;54.83;100452.38;5030670;28;20030;-68
2021/10/20 03:31:50;;;;;;;10.40;5.40;;;;;;;13.55;53.16;100438.34;5028302;28;20049;-69
2021/10/20 03:34:16;;;;;;;6.95;5.20;;;;;;;13.67;52.74;100431.53;5039021;28;20041;-68
2021/10/20 03:36:41;;;;;;;8.88;5.57;;;;;;;13.35;53.44;100420.31;5027840;28;20080;-68
2021/10/20 03:39:07;;;;;;;6.78;4.38;;;;;;;14.08;51.57;100421.13;5030418;28;20036;-67
2021/10/20 03:41:32;;;;;;;8.40;5.10;;;;;;;13.40;52.82;100403.31;5029885;28;20662;-68
2021/10/20 03:43:58;;;;;;;14.20;5.25;;;;;;;13.78;52.09;100397.56;5031632;28;20057;-67
2021/10/20 03:46:23;;;;;;;14.70;5.57;;;;;;;13.71;52.00;100412.03;5033253;28;20048;-67
2021/10/20 03:48:48;;;;;;;10.75;5.07;;;;;;;13.71;51.98;100404.16;5030615;28;20049;-68
2021/10/20 03:51:14;;;;;;;9.05;5.68;;;;;;;13.39;52.57;100416.56;5032418;28;20380;-68
2021/10/20 03:53:39;;;;;;;6.90;5.05;;;;;;;13.34;52.88;100419.47;5029616;28;20509;-68
2021/10/20 03:56:05;;;;;;;11.52;5.88;;;;;;;13.83;51.55;100423.56;5045609;28;20087;-68
2021/10/20 03:58:30;;;;;;;8.43;5.57;;;;;;;13.52;52.17;100422.78;5030654;28;20049;-68
2021/10/20 04:00:57;;;;;;;7.70;5.13;;;;;;;13.47;52.23;100414.31;5032842;28;20052;-67
2021/10/20 04:03:22;;;;;;;9.00;5.95;;;;;;;13.35;52.49;100400.13;5046927;28;20060;-68
2021/10/20 04:05:48;;;;;;;8.57;5.13;;;;;;;13.40;52.17;100403.31;5032710;28;20037;-67
2021/10/20 04:08:13;;;;;;;8.43;5.38;;;;;;;13.48;52.04;100400.25;5033101;28;20040;-67
2021/10/20 04:10:39;;;;;;;6.82;4.70;;;;;;;13.45;51.97;100390.78;5035852;28;20425;-67
2021/10/20 04:13:04;;;;;;;8.57;4.60;;;;;;;12.67;54.20;100383.03;5029652;28;20384;-67
2021/10/20 04:15:30;;;;;;;9.02;5.07;;;;;;;13.25;52.08;100388.47;5030547;28;20029;-67
2021/10/20 04:17:55;;;;;;;11.98;6.13;;;;;;;13.11;52.14;100398.00;5027530;28;20517;-67
2021/10/20 04:20:22;;;;;;;9.43;5.32;;;;;;;13.57;51.14;100398.91;5040086;28;20037;-67
2021/10/20 04:22:48;;;;;;;9.60;5.82;;;;;;;12.83;52.97;100374.34;5029290;28;20042;-68
2021/10/20 04:25:15;;;;;;;12.48;6.13;;;;;;;12.95;52.56;100384.09;5031914;28;20099;-68
2021/10/20 04:27:40;;;;;;;10.90;5.43;;;;;;;12.16;54.61;100387.63;5032467;28;20524;-67
2021/10/20 04:30:08;;;;;;;9.85;6.13;;;;;;;12.09;54.86;100383.66;5033370;28;20037;-69
2021/10/20 04:32:33;;;;;;;10.50;5.30;;;;;;;12.46;54.32;100384.22;5025212;28;20091;-70
2021/10/20 04:35:00;;;;;;;8.88;5.28;;;;;;;12.54;53.83;100382.03;5029763;28;20041;-68
2021/10/20 04:37:27;;;;;;;10.32;4.82;;;;;;;12.49;53.95;100373.56;5027008;28;20118;-67
2021/10/20 04:39:56;;;;;;;10.73;5.68;;;;;;;12.68;53.29;100366.34;5029420;28;20106;-67
2021/10/20 04:42:23;;;;;;;11.50;6.32;;;;;;;12.92;52.67;100362.47;5027121;28;20045;-67
2021/10/20 04:44:48;;;;;;;10.50;5.75;;;;;;;12.42;54.01;100356.50;5032578;28;20067;-68
2021/10/20 04:47:14;;;;;;;8.27;5.63;;;;;;;12.75;52.99;100363.44;5030176;28;20711;-68
2021/10/20 04:49:39;;;;;;;10.73;5.00;;;;;;;12.81;52.54;100357.84;5036066;28;20410;-67
2021/10/20 04:52:05;;;;;;;9.82;6.03;;;;;;;13.12;51.41;100343.78;5031830;28;20047;-68
2021/10/20 04:54:30;;;;;;;9.65;5.78;;;;;;;13.39;51.15;100346.53;5030109;28;20084;-67
2021/10/20 04:56:56;;;;;;;11.90;6.15;;;;;;;13.27;51.31;100344.63;5030706;28;20132;-68
2021/10/20 04:59:23;;;;;;;8.93;5.68;;;;;;;13.10;51.58;100343.84;5030087;28;20021;-68
2021/10/20 05:01:48;;;;;;;10.10;6.22;;;;;;;13.38;50.94;100328.22;5033933;28;20094;-68
2021/10/20 05:04:14;;;;;;;14.55;5.60;;;;;;;13.14;51.57;100325.28;5026898;28;20064;-67
2021/10/20 05:06:39;;;;;;;11.48;6.07;;;;;;;13.16;51.52;100316.44;5027671;28;20072;-68
2021/10/20 05:09:04;;;;;;;12.25;6.50;;;;;;;12.97;51.70;100306.16;5036508;28;20136;-67
2021/10/20 05:11:30;;;;;;;10.98;5.65;;;;;;;12.99;51.83;100314.78;5027355;28;20029;-69
2021/10/20 05:13:55;;;;;;;12.02;6.85;;;;;;;12.85;52.04;100301.66;5032191;28;20037;-68
2021/10/20 05:16:21;;;;;;;10.82;6.18;;;;;;;13.01;51.84;100296.34;5026190;28;20041;-68
2021/10/20 05:18:46;;;;;;;10.35;6.22;;;;;;;13.08;51.43;100298.50;5029126;28;20061;-68
2021/10/20 05:21:12;;;;;;;12.02;6.25;;;;;;;12.86;51.79;100298.09;5028053;28;20469;-68
2021/10/20 05:23:37;;;;;;;12.20;6.45;;;;;;;13.64;49.97;100280.25;5027810;28;20103;-68
2021/10/20 05:26:03;;;;;;;11.05;5.70;;;;;;;12.90;51.75;100281.25;5029730;28;20033;-68
2021/10/20 05:28:28;;;;;;;9.00;5.50;;;;;;;13.28;51.03;100270.22;5028680;28;20033;-69
2021/10/20 05:30:54;;;;;;;13.07;6.10;;;;;;;13.37;50.42;100259.16;5031360;28;20029;-68
2021/10/20 05:33:19;;;;;;;10.85;7.32;;;;;;;13.85;49.05;100259.69;5033209;28;20049;-67
2021/10/20 05:35:45;;;;;;;10.98;6.00;;;;;;;13.79;49.18;100252.19;5027538;28;20048;-68
2021/10/20 05:38:10;;;;;;;11.80;6.15;;;;;;;13.70;49.33;100242.28;5027824;28;20060;-69
2021/10/20 05:40:36;;;;;;;10.35;6.05;;;;;;;13.49;49.75;100240.00;5028999;28;20518;-68
2021/10/20 05:43:01;;;;;;;7.50;5.50;;;;;;;13.71;49.36;100250.03;5029524;28;20091;-68
2021/10/20 05:45:28;;;;;;;7.85;5.93;;;;;;;13.32;50.36;100242.84;5026561;28;20041;-68
2021/10/20 05:47:53;;;;;;;12.38;6.50;;;;;;;12.97;50.98;100229.25;5029462;28;20045;-68
2021/10/20 05:50:19;;;;;;;15.18;6.88;;;;;;;13.97;48.57;100220.44;5027340;28;20047;-68
2021/10/20 05:52:44;;;;;;;14.85;6.22;;;;;;;13.44;49.70;100215.84;5029622;28;20061;-69
2021/10/20 05:55:10;;;;;;;13.82;6.60;;;;;;;12.78;51.29;100216.38;5027994;28;20041;-68
2021/10/20 05:57:37;;;;;;;9.35;5.65;;;;;;;12.92;50.98;100216.44;5029237;28;20449;-68
2021/10/20 06:00:08;;;;;;;8.15;5.53;;;;;;;13.16;50.39;100210.59;5027329;28;20092;-68
2021/10/20 06:02:37;;;;;;;8.07;5.78;;;;;;;12.84;51.03;100203.75;5027819;28;20033;-68
2021/10/20 06:05:03;;;;;;;12.63;6.22;;;;;;;13.59;48.96;100192.22;5029383;28;20195;-68
2021/10/20 06:07:29;;;;;;;9.95;5.35;;;;;;;13.16;50.49;100177.34;5026868;28;20053;-68
2021/10/20 06:09:55;;;;;;;10.13;6.10;;;;;;;13.64;49.03;100185.72;5026059;28;20048;-68
2021/10/20 06:12:21;;;;;;;9.23;5.55;;;;;;;12.74;50.76;100173.78;5026306;28;20053;-68
2021/10/20 06:14:48;;;;;;;11.30;5.75;;;;;;;13.45;48.83;100169.41;5026256;28;20033;-68
2021/10/20 06:17:14;;;;;;;13.15;5.45;;;;;;;13.78;48.58;100176.97;5028053;28;20156;-68
2021/10/20 06:19:39;;;;;;;8.93;5.72;;;;;;;12.94;50.45;100183.09;5029851;28;20111;-68
2021/10/20 06:22:05;;;;;;;8.85;5.40;;;;;;;13.33;49.78;100181.53;5028963;28;20111;-67
2021/10/20 06:24:30;;;;;;;12.30;6.57;;;;;;;13.86;48.38;100169.44;5026909;28;20029;-67
2021/10/20 06:26:56;;;;;;;10.63;5.93;;;;;;;13.63;48.75;100172.69;5019760;28;20437;-68
2021/10/20 06:29:25;;;;;;;11.23;6.03;;;;;;;13.35;49.15;100156.03;5030487;28;20128;-68
2021/10/20 06:31:50;;;;;;;9.95;6.22;;;;;;;12.97;50.04;100161.91;5026118;28;20045;-67
2021/10/20 06:34:16;;;;;;;12.70;5.75;;;;;;;13.04;49.96;100165.00;5029445;28;20039;-68
2021/10/20 06:36:41;;;;;;;11.25;6.10;;;;;;;12.78;50.74;100161.31;5018505;28;20036;-68
2021/10/20 06:39:07;;;;;;;9.85;6.57;;;;;;;13.36;49.49;100162.13;5027677;28;20036;-68
2021/10/20 06:41:32;;;;;;;12.82;6.65;;;;;;;13.38;48.95;100153.22;5028532;28;20129;-67
2021/10/20 06:43:59;;;;;;;13.70;7.75;;;;;;;13.57;48.73;100170.47;5015333;28;20632;-67
2021/10/20 06:46:24;;;;;;;14.30;6.50;;;;;;;13.91;47.84;100156.84;5026718;28;20036;-67
2021/10/20 06:48:50;;;;;;;12.32;8.05;;;;;;;13.53;48.92;100162.75;5025406;28;20049;-66
2021/10/20 06:51:16;;;;;;;12.95;7.13;;;;;;;14.00;47.44;100147.50;5031572;28;20037;-68
2021/10/20 06:53:41;;;;;;;17.40;7.78;;;;;;;13.79;48.00;100141.88;5028526;28;20068;-71
2021/10/20 06:56:07;;;;;;;16.40;8.40;;;;;;;13.30;49.02;100142.38;5028990;28;20029;-67
2021/10/20 06:58:34;;;;;;;11.50;7.93;;;;;;;12.72;50.75;100144.19;5027828;28;20053;-67
2021/10/20 07:00:59;;;;;;;14.07;8.15;;;;;;;13.05;49.75;100150.94;5030697;28;20033;-70
2021/10/20 07:03:25;;;;;;;14.30;8.52;;;;;;;13.26;49.19;100135.63;5026876;28;20417;-67
2021/10/20 07:05:50;;;;;;;15.63;7.95;;;;;;;12.90;49.78;100121.25;5028837;28;20128;-67
2021/10/20 07:08:16;;;;;;;18.67;8.07;;;;;;;13.90;47.59;100136.78;5034252;28;20995;-68
2021/10/20 07:10:42;;;;;;;15.05;8.77;;;;;;;13.18;49.35;100128.22;5028958;28;20039;-67
2021/10/20 07:13:07;;;;;;;14.38;7.63;;;;;;;12.98;50.03;100119.00;5025291;28;20037;-68
2021/10/20 07:15:33;;;;;;;16.52;8.35;;;;;;;13.41;48.68;100100.53;5029033;28;20098;-68
2021/10/20 07:17:58;;;;;;;16.52;7.72;;;;;;;13.61;48.68;100095.81;5027018;28;20054;-68
2021/10/20 07:20:24;;;;;;;11.55;7.30;;;;;;;14.12;47.44;100090.66;5029482;28;20521;-68
2021/10/20 07:22:50;;;;;;;11.88;6.75;;;;;;;13.37;49.34;100101.69;5014943;28;20037;-67
2021/10/20 07:25:19;;;;;;;11.73;7.85;;;;;;;13.87;48.19;100094.94;5028588;28;20022;-68
2021/10/20 07:27:46;;;;;;;12.57;7.55;;;;;;;13.24;49.73;100082.41;5028682;28;20061;-67
2021/10/20 07:30:12;;;;;;;18.30;8.00;;;;;;;13.89;48.37;100093.03;5026544;28;20036;-68
2021/10/20 07:32:42;;;;;;;11.68;7.18;;;;;;;13.66;48.82;100091.94;5026824;28;20061;-68
2021/10/20 07:35:14;;;;;;;14.45;8.55;;;;;;;13.69;48.76;100083.84;5025542;28;20036;-69
2021/10/20 07:37:40;;;;;;;14.45;7.75;;;;;;;14.18;47.96;100085.00;5026939;28;20064;-67
2021/10/20 07:40:07;;;;;;;18.63;9.32;;;;;;;13.81;48.81;100079.59;5033477;28;20025;-68
2021/10/20 07:42:33;;;;;;;14.23;7.25;;;;;;;14.01;48.70;100066.91;5047229;28;20048;-69
2021/10/20 07:44:59;;;;;;;15.02;7.90;;;;;;;13.85;48.95;100077.59;5033540;28;20037;-68
2021/10/20 07:47:26;;;;;;;16.23;8.25;;;;;;;13.70;49.55;100077.69;5030869;28;20099;-69
2021/10/20 07:49:53;;;;;;;15.57;8.15;;;;;;;13.73;49.78;100068.75;5034267;28;20186;-68
2021/10/20 07:52:20;;;;;;;12.10;7.70;;;;;;;14.23;48.33;100077.66;5031555;28;20098;-68
2021/10/20 07:54:46;;;;;;;20.33;8.20;;;;;;;14.22;48.55;100070.72;5034045;28;20140;-69
2021/10/20 07:57:12;;;;;;;13.23;6.50;;;;;;;14.54;47.76;100054.53;5031936;28;20102;-68
2021/10/20 07:59:37;;;;;;;12.73;7.88;;;;;;;13.28;51.73;100065.53;5030711;28;20580;-67
2021/10/20 08:02:03;;;;;;;12.73;8.15;;;;;;;13.14;53.19;100055.91;5029351;28;20604;-67
2021/10/20 08:04:29;;;;;;;14.07;8.07;;;;;;;12.53;55.40;100057.91;5030199;28;20024;-68
2021/10/20 08:06:54;;;;;;;12.20;8.35;;;;;;;12.81;54.75;100059.72;5030131;28;20506;-67
2021/10/20 08:09:19;;;;;;;12.35;8.75;;;;;;;13.93;51.96;100057.75;5029469;28;20057;-68
2021/10/20 08:11:45;;;;;;;17.88;9.40;;;;;;;12.70;55.07;100057.75;5032564;28;20037;-68
2021/10/20 08:14:10;;;;;;;12.10;7.88;;;;;;;12.87;55.44;100048.00;5032989;28;20116;-67
2021/10/20 08:16:36;;;;;;;13.88;8.05;;;;;;;13.52;53.72;100045.56;5029651;28;22941;-68
2021/10/20 08:19:02;;;;;;;11.57;7.97;;;;;;;13.37;54.56;100050.97;5031370;28;20464;-68
2021/10/20 08:21:27;;;;;;;15.48;8.15;;;;;;;12.92;55.16;100051.19;5028743;28;20060;-68
2021/10/20 08:23:53;;;;;;;15.88;7.85;;;;;;;13.82;52.68;100052.38;5030868;28;20086;-69
2021/10/20 08:26:19;;;;;;;14.15;7.90;;;;;;;13.99;52.34;100058.31;5031577;28;20033;-68
2021/10/20 08:28:44;;;;;;;17.33;9.68;;;;;;;13.45;53.48;100041.66;5017717;28;20103;-67
2021/10/20 08:31:10;;;;;;;18.25;8.48;;;;;;;13.62;53.44;100052.84;5034469;28;20068;-68
2021/10/20 08:33:35;;;;;;;13.32;7.75;;;;;;;13.97;52.14;100078.56;5028777;28;20041;-67
2021/10/20 08:36:00;;;;;;;15.95;9.05;;;;;;;13.65;53.06;100052.66;5029334;28;20447;-70
2021/10/20 08:38:26;;;;;;;15.60;9.00;;;;;;;13.21;53.62;100053.75;5028171;28;20610;-70
2021/10/20 08:40:52;;;;;;;14.27;9.40;;;;;;;13.70;52.69;100027.78;5031982;28;20040;-67
2021/10/20 08:43:19;;;;;;;15.95;10.00;;;;;;;13.94;52.62;100035.81;5026892;28;20128;-67
2021/10/20 08:45:46;;;;;;;17.38;9.23;;;;;;;13.62;53.41;100021.34;5031114;28;20033;-69
2021/10/20 08:48:13;;;;;;;16.48;8.90;;;;;;;13.96;52.61;100011.19;5030510;28;20516;-69
2021/10/20 08:50:39;;;;;;;19.73;8.90;;;;;;;13.83;53.03;100001.53;5031901;28;20068;-68
2021/10/20 08:53:06;;;;;;;15.98;8.77;;;;;;;13.61;53.57;99991.63;5032078;28;20402;-69
2021/10/20 08:55:32;;;;;;;18.17;8.63;;;;;;;14.00;52.78;99996.91;5022894;28;20362;-68
2021/10/20 08:57:59;;;;;;;16.92;8.88;;;;;;;13.82;52.94;99981.47;5018442;28;20397;-68
2021/10/20 09:00:25;;;;;;;14.20;8.05;;;;;;;13.41;53.85;99971.94;5031263;28;20194;-67
2021/10/20 09:02:51;;;;;;;12.50;7.70;;;;;;;13.20;54.27;99976.78;5029976;28;20041;-69
2021/10/20 09:05:23;;;;;;;13.00;7.60;;;;;;;13.68;53.11;99977.16;5031076;28;20675;-67
2021/10/20 09:07:51;;;;;;;15.77;8.13;;;;;;;13.43;53.61;99977.06;5031863;28;20356;-67
2021/10/20 09:10:17;;;;;;;14.23;7.93;;;;;;;13.39;53.70;99971.19;5034363;28;20121;-67
2021/10/20 09:12:44;;;;;;;14.73;8.68;;;;;;;13.62;52.53;99953.09;5028739;28;20041;-67
2021/10/20 09:15:23;;;;;;;11.98;7.22;;;;;;;13.87;52.66;99949.63;5030414;28;20124;-69
2021/10/20 09:18:07;;;;;;;18.17;7.90;;;;;;;13.18;54.34;99944.56;5023070;28;20048;-67
2021/10/20 09:20:44;;;;;;;16.45;8.00;;;;;;;13.49;53.33;99969.63;5030306;28;20029;-67
2021/10/20 09:23:12;;;;;;;10.68;6.63;;;;;;;13.72;52.89;99967.28;5032294;28;20115;-67
2021/10/20 09:25:45;;;;;;;10.38;6.68;;;;;;;14.13;51.69;99971.47;5029085;28;20087;-66
2021/10/20 09:28:21;;;;;;;13.00;7.43;;;;;;;14.20;51.81;99970.09;5034278;28;20053;-68
2021/10/20 09:30:47;;;;;;;15.38;7.15;;;;;;;13.65;52.82;99976.50;5031016;28;20049;-68
2021/10/20 09:33:13;;;;;;;18.50;7.10;;;;;;;13.77;52.72;99978.31;5032498;28;20048;-68
2021/10/20 09:35:39;;;;;;;10.77;6.53;;;;;;;13.58;52.87;99980.50;5029727;28;20029;-69
2021/10/20 09:38:05;;;;;;;11.15;7.35;;;;;;;13.88;52.76;99975.78;5034547;28;20049;-68
2021/10/20 09:40:35;;;;;;;12.32;7.82;;;;;;;13.87;52.45;99971.47;5031452;28;20199;-68
2021/10/20 09:43:01;;;;;;;12.50;7.65;;;;;;;14.31;51.56;99966.72;5029222;28;20041;-67
2021/10/20 09:45:31;;;;;;;12.85;6.80;;;;;;;14.22;51.61;99962.94;5027837;28;20063;-66
2021/10/20 09:48:08;;;;;;;7.90;5.38;;;;;;;14.28;51.27;99959.91;5027418;28;20060;-68
2021/10/20 09:50:38;;;;;;;12.70;7.57;;;;;;;14.28;51.51;99949.38;5027908;28;20095;-67
2021/10/20 09:53:03;;;;;;;10.80;7.60;;;;;;;13.53;53.16;99957.97;5027359;28;20041;-67
2021/10/20 09:55:31;;;;;;;10.18;6.22;;;;;;;13.73;52.89;99968.97;5044603;28;20034;-69
2021/10/20 09:58:10;;;;;;;16.10;7.53;;;;;;;14.13;51.81;99960.97;5037587;28;20053;-68
2021/10/20 10:00:37;;;;;;;12.00;6.25;;;;;;;13.27;54.00;99967.59;5036760;28;20474;-68
2021/10/20 10:03:05;;;;;;;11.65;5.75;;;;;;;14.20;51.78;99967.47;5028133;28;20037;-67
2021/10/20 10:05:31;;;;;;;10.88;6.75;;;;;;;14.09;51.99;99970.84;5045221;28;20048;-68
2021/10/20 10:07:57;;;;;;;11.20;6.13;;;;;;;13.90;52.19;99975.69;5027322;28;20041;-67
2021/10/20 10:10:23;;;;;;;10.02;6.45;;;;;;;14.27;51.08;99967.88;5028607;28;20371;-69
2021/10/20 10:12:53;;;;;;;9.02;5.93;;;;;;;13.31;53.97;99968.22;5027895;28;20047;-68
2021/10/20 10:15:19;;;;;;;11.90;6.50;;;;;;;13.71;52.58;99966.44;5030133;28;20044;-69
2021/10/20 10:17:47;;;;;;;10.30;5.68;;;;;;;13.91;52.54;99961.59;5030314;28;20417;-68
2021/10/20 10:20:15;;;;;;;8.55;5.15;;;;;;;14.94;49.93;99962.25;5031725;28;20033;-67
2021/10/20 10:22:56;;;;;;;12.52;5.90;;;;;;;15.17;49.16;99955.31;5029580;28;20042;-68
2021/10/20 10:25:42;;;;;;;7.32;4.85;;;;;;;14.54;50.51;99971.25;5030503;28;20026;-67
2021/10/20 10:28:37;;;;;;;10.50;5.10;;;;;;;14.39;51.19;99958.28;5029117;28;20119;-68
2021/10/20 10:31:06;;;;;;;9.32;4.80;;;;;;;14.08;51.58;99948.16;5038299;28;20029;-67
2021/10/20 10:33:37;;;;;;;9.18;5.60;;;;;;;13.93;52.16;99936.06;5027987;28;20034;-68
2021/10/20 10:36:10;;;;;;;8.27;5.15;;;;;;;13.89;52.11;99927.56;5037956;28;20063;-68
2021/10/20 10:38:48;;;;;;;7.68;5.28;;;;;;;13.59;52.83;99922.63;5026807;28;20119;-68
2021/10/20 10:41:26;;;;;;;8.07;5.15;;;;;;;14.67;50.42;99913.34;5045573;28;20259;-68
2021/10/20 10:44:02;;;;;;;9.27;5.32;;;;;;;13.76;52.78;99921.47;5029074;28;20045;-68
2021/10/20 10:46:39;;;;;;;10.73;5.47;;;;;;;13.76;52.58;99910.13;5038510;28;20448;-68
2021/10/20 10:49:40;;;;;;;7.15;5.32;;;;;;;13.80;52.46;99917.69;5026147;28;20044;-68
2021/10/20 10:52:16;;;;;;;9.50;5.55;;;;;;;14.11;52.18;99926.06;5025747;28;20045;-68
2021/10/20 10:55:04;;;;;;;12.63;6.00;;;;;;;13.61;53.45;99918.13;5028305;28;20103;-68
2021/10/20 10:57:44;;;;;;;7.28;4.78;;;;;;;14.61;50.99;99923.44;5024124;28;20506;-70
2021/10/20 11:00:23;;;;;;;9.45;4.78;;;;;;;14.34;51.82;99912.16;5033376;28;20118;-67
2021/10/20 11:02:51;;;;;;;10.80;5.43;;;;;;;15.30;49.49;99915.78;5028960;28;20513;-69
2021/10/20 11:05:19;;;;;;;7.32;5.65;;;;;;;14.56;51.02;99906.22;5028528;28;20061;-67
2021/10/20 11:07:46;;;;;;;6.95;5.05;;;;;;;14.67;50.85;99908.06;5027704;28;20046;-67
2021/10/20 11:10:13;;;;;;;8.68;5.38;;;;;;;14.32;51.47;99906.19;5029736;28;20600;-68
2021/10/20 11:12:38;;;;;;;5.55;5.00;;;;;;;14.53;51.56;99900.34;5029608;28;20539;-67
2021/10/20 11:15:05;;;;;;;7.68;4.93;;;;;;;14.88;50.62;99887.25;5063181;22;20131;-64
2021/10/20 11:17:32;;;;;;;11.27;6.05;;;;;;;14.45;51.88;99887.75;5044074;28;20505;-66
2021/10/20 11:20:03;;;;;;;8.82;5.22;;;;;;;14.98;50.50;99882.16;5065563;28;20055;-67
2021/10/20 11:22:29;;;;;;;7.70;4.97;;;;;;;15.01;50.50;99879.28;5062515;28;20028;-66